首页
METAR-TAF:

METAR-TAF

机场 :

阿塔蒂尔克国际机场

伊斯坦布尔 阿塔土克, 土耳其

纬度: 40-58N, 经度: 028-49E, 海拔: 48米

当前天气观测

该预报发布于38分钟前的23:20 UTC
风速5节,风向东北
温度 23°C
湿度 83%
气压 1013 hPa
能见度10公里或以上
少量云层高于3500英尺

METAR: LTBA 192320Z 04005KT 9999 FEW035 23/20 Q1013 NOSIG RMK RWY17L 04007KT RWY05 04005KT RWY23 07006KT

时间: 02:58 (23:58 UTC)

预报

该预报发布于1小时和18分钟前的22:40 UTC
预报有效从20日的 00点(UTC)到 21日的 06点(UTC)
风速9节,风向北转东北
能见度10公里或以上
少量云层高于3500英尺
成为
从 20日的 01点(UTC)到 20日的 04点(UTC)
少量云层高于1200英尺
多云层高于2500英尺
几率 30% :
短暂存在
从 20日的 03点(UTC)到 20日的 06点(UTC)
少量云层高于2500英尺, 塔状积云.
多云层高于3000英尺
小阵雨
几率 40% :
短暂存在
从 20日的 06点(UTC)到 20日的 09点(UTC)
散云层高于2000英尺, 积雨云.
多云层高于2500英尺
雷暴, 小雨
成为
从 20日的 10点(UTC)到 20日的 13点(UTC)
少量云层高于3500英尺
短暂存在
从 20日的 11点(UTC)到 20日的 15点(UTC)
风速15节,风向东北,有时为25节阵风
成为
从 20日的 15点(UTC)到 20日的 18点(UTC)
能见度10公里或以上
1500米以下无云,无积雨云

TAF: LTBA 192240Z 2000/2106 03009KT 9999 FEW035 BECMG 2001/2004 FEW012 BKN025 PROB30 TEMPO 2003/2006 -SHRA FEW025TCU BKN030 PROB40 TEMPO 2006/2009 -TSRA SCT020CB BKN025 BECMG 2010/2013 FEW035 TEMPO 2011/2015 04015G25KT BECMG 2015/2018 CAVOK

超过4000个机场的气象观测和天气预报(METAR&TAF报告)。

可查询的气象台以黄色和红色小点在地图上表示。

将鼠标移到小点上方,可查看气象台名称。

然后点击查看天气观测和预报。

如需切换地图:点击带黑十字的绿色按钮放大地图;点击带横线的绿色按钮缩小地图;或者点击绿色箭头查看邻近地区的地图。


METAR-TAF: